sensor_id;sensor_type;location;lat;lon;timestamp;pressure;altitude;pressure_sealevel;temperature;humidity
9189;BME280;34313;50.780;6.084;2024-01-15T00:01:37;98337.88;;;0.72;100.00
9189;BME280;34313;50.780;6.084;2024-01-15T00:04:02;98331.69;;;0.75;100.00
9189;BME280;34313;50.780;6.084;2024-01-15T00:06:28;98327.91;;;0.84;100.00
9189;BME280;34313;50.780;6.084;2024-01-15T00:08:53;98337.56;;;0.80;100.00
9189;BME280;34313;50.780;6.084;2024-01-15T00:11:19;98328.59;;;0.89;100.00
9189;BME280;34313;50.780;6.084;2024-01-15T00:13:44;98325.00;;;0.93;100.00
9189;BME280;34313;50.780;6.084;2024-01-15T00:16:09;98328.66;;;0.87;100.00
9189;BME280;34313;50.780;6.084;2024-01-15T00:18:35;98320.72;;;0.92;100.00
9189;BME280;34313;50.780;6.084;2024-01-15T00:21:01;98319.63;;;0.98;100.00
9189;BME280;34313;50.780;6.084;2024-01-15T00:23:26;98322.72;;;0.84;100.00
9189;BME280;34313;50.780;6.084;2024-01-15T00:25:51;98311.16;;;0.92;100.00
9189;BME280;34313;50.780;6.084;2024-01-15T00:28:16;98313.88;;;0.89;100.00
9189;BME280;34313;50.780;6.084;2024-01-15T00:30:42;98318.06;;;0.93;100.00
9189;BME280;34313;50.780;6.084;2024-01-15T00:33:07;98307.63;;;0.95;100.00
9189;BME280;34313;50.780;6.084;2024-01-15T00:35:32;98313.69;;;0.94;100.00
9189;BME280;34313;50.780;6.084;2024-01-15T00:37:58;98308.34;;;0.99;100.00
9189;BME280;34313;50.780;6.084;2024-01-15T00:40:23;98316.34;;;0.92;100.00
9189;BME280;34313;50.780;6.084;2024-01-15T00:42:50;98313.81;;;0.91;100.00
9189;BME280;34313;50.780;6.084;2024-01-15T00:45:15;98311.28;;;0.89;100.00
9189;BME280;34313;50.780;6.084;2024-01-15T00:47:41;98308.63;;;0.91;100.00
9189;BME280;34313;50.780;6.084;2024-01-15T00:50:06;98314.63;;;0.93;100.00
9189;BME280;34313;50.780;6.084;2024-01-15T00:52:32;98306.94;;;0.90;100.00
9189;BME280;34313;50.780;6.084;2024-01-15T00:54:57;98304.34;;;0.90;100.00
9189;BME280;34313;50.780;6.084;2024-01-15T00:57:22;98308.47;;;0.96;100.00
9189;BME280;34313;50.780;6.084;2024-01-15T00:59:47;98298.19;;;0.92;100.00
9189;BME280;34313;50.780;6.084;2024-01-15T01:02:13;98309.28;;;0.96;100.00
9189;BME280;34313;50.780;6.084;2024-01-15T01:04:38;98303.22;;;0.97;100.00
9189;BME280;34313;50.780;6.084;2024-01-15T01:07:04;98303.22;;;0.97;100.00
9189;BME280;34313;50.780;6.084;2024-01-15T01:09:29;98302.28;;;0.98;100.00
9189;BME280;34313;50.780;6.084;2024-01-15T01:11:55;98303.50;;;0.89;100.00
9189;BME280;34313;50.780;6.084;2024-01-15T01:14:21;98294.66;;;0.95;100.00
9189;BME280;34313;50.780;6.084;2024-01-15T01:16:47;98291.44;;;0.88;100.00
9189;BME280;34313;50.780;6.084;2024-01-15T01:19:12;98281.28;;;0.82;100.00
9189;BME280;34313;50.780;6.084;2024-01-15T01:21:37;98293.78;;;0.94;100.00
9189;BME280;34313;50.780;6.084;2024-01-15T01:24:03;98279.19;;;0.92;100.00
9189;BME280;34313;50.780;6.084;2024-01-15T01:26:28;98288.69;;;0.93;100.00
9189;BME280;34313;50.780;6.084;2024-01-15T01:28:54;98283.28;;;0.98;100.00
9189;BME280;34313;50.780;6.084;2024-01-15T01:31:19;98275.09;;;0.86;100.00
9189;BME280;34313;50.780;6.084;2024-01-15T01:33:44;98287.34;;;0.83;100.00
9189;BME280;34313;50.780;6.084;2024-01-15T01:36:09;98281.91;;;0.89;100.00
9189;BME280;34313;50.780;6.084;2024-01-15T01:38:36;98290.59;;;0.88;100.00
9189;BME280;34313;50.780;6.084;2024-01-15T01:41:01;98287.09;;;0.89;100.00
9189;BME280;34313;50.780;6.084;2024-01-15T01:43:26;98288.84;;;0.88;100.00
9189;BME280;34313;50.780;6.084;2024-01-15T01:45:52;98290.53;;;0.89;100.00
9189;BME280;34313;50.780;6.084;2024-01-15T01:48:17;98287.09;;;0.89;100.00
9189;BME280;34313;50.780;6.084;2024-01-15T01:50:44;98293.94;;;0.91;100.00
9189;BME280;34313;50.780;6.084;2024-01-15T01:53:09;98287.16;;;0.87;100.00
9189;BME280;34313;50.780;6.084;2024-01-15T01:55:36;98294.72;;;0.93;100.00
9189;BME280;34313;50.780;6.084;2024-01-15T01:58:01;98296.69;;;0.87;100.00
9189;BME280;34313;50.780;6.084;2024-01-15T02:00:27;98293.25;;;0.86;100.00
9189;BME280;34313;50.780;6.084;2024-01-15T02:02:52;98284.59;;;0.86;100.00
9189;BME280;34313;50.780;6.084;2024-01-15T02:05:22;98270.31;;;0.75;100.00
9189;BME280;34313;50.780;6.084;2024-01-15T02:07:48;98295.78;;;0.88;100.00
9189;BME280;34313;50.780;6.084;2024-01-15T02:10:13;98292.28;;;0.89;100.00
9189;BME280;34313;50.780;6.084;2024-01-15T02:12:39;98276.91;;;0.84;100.00
9189;BME280;34313;50.780;6.084;2024-01-15T02:15:04;98283.66;;;0.88;100.00
9189;BME280;34313;50.780;6.084;2024-01-15T02:17:30;98287.34;;;0.83;100.00
9189;BME280;34313;50.780;6.084;2024-01-15T02:19:55;98282.56;;;0.94;100.00
9189;BME280;34313;50.780;6.084;2024-01-15T02:22:20;98284.22;;;0.97;100.00
9189;BME280;34313;50.780;6.084;2024-01-15T02:24:45;98285.34;;;0.89;100.00
9189;BME280;34313;50.780;6.084;2024-01-15T02:27:11;98286.31;;;0.87;100.00
9189;BME280;34313;50.780;6.084;2024-01-15T02:29:36;98293.72;;;0.96;100.00
9189;BME280;34313;50.780;6.084;2024-01-15T02:32:05;98293.06;;;0.91;100.00
9189;BME280;34313;50.780;6.084;2024-01-15T02:34:32;98279.91;;;0.96;100.00
9189;BME280;34313;50.780;6.084;2024-01-15T02:36:57;98282.34;;;1.00;100.00
9189;BME280;34313;50.780;6.084;2024-01-15T02:39:22;98287.59;;;0.99;100.00
9189;BME280;34313;50.780;6.084;2024-01-15T02:41:48;98286.56;;;1.03;100.00
9189;BME280;34313;50.780;6.084;2024-01-15T02:44:13;98283.78;;;1.07;100.00
9189;BME280;34313;50.780;6.084;2024-01-15T02:46:38;98282.75;;;1.11;100.00
9189;BME280;34313;50.780;6.084;2024-01-15T02:49:03;98282.94;;;1.07;100.00
9189;BME280;34313;50.780;6.084;2024-01-15T02:51:29;98283.47;;;1.15;100.00
9189;BME280;34313;50.780;6.084;2024-01-15T02:53:54;98294.59;;;1.19;100.00
9189;BME280;34313;50.780;6.084;2024-01-15T02:56:19;98288.50;;;1.20;100.00
9189;BME280;34313;50.780;6.084;2024-01-15T02:58:45;98285.97;;;1.18;100.00
9189;BME280;34313;50.780;6.084;2024-01-15T03:01:10;98296.41;;;1.17;100.00
9189;BME280;34313;50.780;6.084;2024-01-15T03:03:35;98291.09;;;1.20;100.00
9189;BME280;34313;50.780;6.084;2024-01-15T03:06:01;98292.00;;;1.19;100.00
9189;BME280;34313;50.780;6.084;2024-01-15T03:08:27;98289.50;;;1.16;100.00
9189;BME280;34313;50.780;6.084;2024-01-15T03:10:54;98291.22;;;1.17;100.00
9189;BME280;34313;50.780;6.084;2024-01-15T03:13:19;98278.13;;;1.20;100.00
9189;BME280;34313;50.780;6.084;2024-01-15T03:15:44;98280.81;;;1.17;100.00
9189;BME280;34313;50.780;6.084;2024-01-15T03:18:10;98275.63;;;1.17;100.00
9189;BME280;34313;50.780;6.084;2024-01-15T03:20:35;98280.00;;;1.16;100.00
9189;BME280;34313;50.780;6.084;2024-01-15T03:23:00;98273.03;;;1.17;100.00
9189;BME280;34313;50.780;6.084;2024-01-15T03:25:25;98272.22;;;1.16;100.00
9189;BME280;34313;50.780;6.084;2024-01-15T03:27:51;98280.00;;;1.16;100.00
9189;BME280;34313;50.780;6.084;2024-01-15T03:30:16;98281.59;;;1.19;100.00
9189;BME280;34313;50.780;6.084;2024-01-15T03:32:41;98271.16;;;1.20;100.00
9189;BME280;34313;50.780;6.084;2024-01-15T03:35:07;98278.13;;;1.20;100.00
9189;BME280;34313;50.780;6.084;2024-01-15T03:37:32;98281.59;;;1.19;100.00
9189;BME280;34313;50.780;6.084;2024-01-15T03:39:57;98268.56;;;1.20;100.00
9189;BME280;34313;50.780;6.084;2024-01-15T03:42:23;98268.56;;;1.20;100.00
9189;BME280;34313;50.780;6.084;2024-01-15T03:44:48;98263.56;;;1.16;100.00
9189;BME280;34313;50.780;6.084;2024-01-15T03:47:13;98258.25;;;1.19;100.00
9189;BME280;34313;50.780;6.084;2024-01-15T03:49:39;98259.84;;;1.23;100.00
9189;BME280;34313;50.780;6.084;2024-01-15T03:52:05;98254.56;;;1.24;100.00
9189;BME280;34313;50.780;6.084;2024-01-15T03:54:30;98260.41;;;1.29;100.00
9189;BME280;34313;50.780;6.084;2024-01-15T03:56:55;98251.66;;;1.32;100.00
9189;BME280;34313;50.780;6.084;2024-01-15T03:59:21;98247.25;;;1.34;100.00
9189;BME280;34313;50.780;6.084;2024-01-15T04:01:50;98240.63;;;1.27;100.00
9189;BME280;34313;50.780;6.084;2024-01-15T04:04:18;98243.09;;;1.30;100.00
9189;BME280;34313;50.780;6.084;2024-01-15T04:06:44;98237.75;;;1.33;100.00
9189;BME280;34313;50.780;6.084;2024-01-15T04:09:09;98233.72;;;1.26;100.00
9189;BME280;34313;50.780;6.084;2024-01-15T04:11:34;98248.81;;;1.38;100.00
9189;BME280;34313;50.780;6.084;2024-01-15T04:13:59;98242.59;;;1.42;100.00
9189;BME280;34313;50.780;6.084;2024-01-15T04:16:25;98248.50;;;1.46;100.00
9189;BME280;34313;50.780;6.084;2024-01-15T04:18:50;98233.09;;;1.41;100.00
9189;BME280;34313;50.780;6.084;2024-01-15T04:21:17;98229.78;;;1.38;100.00
9189;BME280;34313;50.780;6.084;2024-01-15T04:23:43;98239.78;;;1.47;100.00
9189;BME280;34313;50.780;6.084;2024-01-15T04:26:08;98232.44;;;1.36;100.00
9189;BME280;34313;50.780;6.084;2024-01-15T04:28:33;98229.72;;;1.39;100.00
9189;BME280;34313;50.780;6.084;2024-01-15T04:30:59;98225.97;;;1.46;100.00
9189;BME280;34313;50.780;6.084;2024-01-15T04:33:24;98225.19;;;1.44;100.00
9189;BME280;34313;50.780;6.084;2024-01-15T04:35:49;98226.22;;;1.40;100.00
9189;BME280;34313;50.780;6.084;2024-01-15T04:38:15;98218.50;;;1.39;100.00
9189;BME280;34313;50.780;6.084;2024-01-15T04:40:40;98213.22;;;1.40;100.00
9189;BME280;34313;50.780;6.084;2024-01-15T04:43:06;98221.88;;;1.41;100.00
9189;BME280;34313;50.780;6.084;2024-01-15T04:45:31;98215.31;;;1.32;100.00
9189;BME280;34313;50.780;6.084;2024-01-15T04:47:56;98214.28;;;1.36;100.00
9189;BME280;34313;50.780;6.084;2024-01-15T04:50:22;98212.06;;;1.27;100.00
9189;BME280;34313;50.780;6.084;2024-01-15T04:52:48;98214.22;;;1.38;100.00
9189;BME280;34313;50.780;6.084;2024-01-15T04:55:13;98214.16;;;1.39;100.00
9189;BME280;34313;50.780;6.084;2024-01-15T04:57:38;98208.03;;;1.40;100.00
9189;BME280;34313;50.780;6.084;2024-01-15T05:00:04;98221.69;;;1.45;100.00
9189;BME280;34313;50.780;6.084;2024-01-15T05:02:30;98203.84;;;1.38;100.00
9189;BME280;34313;50.780;6.084;2024-01-15T05:04:55;98214.88;;;1.43;100.00
9189;BME280;34313;50.780;6.084;2024-01-15T05:07:20;98204.44;;;1.44;100.00
9189;BME280;34313;50.780;6.084;2024-01-15T05:09:46;98205.31;;;1.43;100.00
9189;BME280;34313;50.780;6.084;2024-01-15T05:12:11;98210.41;;;1.46;100.00
9189;BME280;34313;50.780;6.084;2024-01-15T05:14:36;98201.00;;;1.44;100.00
9189;BME280;34313;50.780;6.084;2024-01-15T05:17:02;98206.91;;;1.47;100.00
9189;BME280;34313;50.780;6.084;2024-01-15T05:19:27;98195.59;;;1.48;100.00
9189;BME280;34313;50.780;6.084;2024-01-15T05:21:52;98195.59;;;1.48;100.00
9189;BME280;34313;50.780;6.084;2024-01-15T05:24:18;98192.88;;;1.51;100.00
9189;BME280;34313;50.780;6.084;2024-01-15T05:26:43;98191.81;;;1.56;100.00
9189;BME280;34313;50.780;6.084;2024-01-15T05:29:08;98193.53;;;1.57;100.00
9189;BME280;34313;50.780;6.084;2024-01-15T05:31:35;98192.59;;;1.58;100.00
9189;BME280;34313;50.780;6.084;2024-01-15T05:34:00;98193.53;;;1.57;100.00
9189;BME280;34313;50.780;6.084;2024-01-15T05:36:26;98193.53;;;1.57;100.00
9189;BME280;34313;50.780;6.084;2024-01-15T05:38:51;98189.16;;;1.57;100.00
9189;BME280;34313;50.780;6.084;2024-01-15T05:41:17;98184.97;;;1.55;100.00
9189;BME280;34313;50.780;6.084;2024-01-15T05:43:42;98184.97;;;1.55;100.00
9189;BME280;34313;50.780;6.084;2024-01-15T05:46:08;98173.91;;;1.49;100.00
9189;BME280;34313;50.780;6.084;2024-01-15T05:48:33;98182.84;;;1.63;100.00
9189;BME280;34313;50.780;6.084;2024-01-15T05:50:58;98182.78;;;1.64;100.00
9189;BME280;34313;50.780;6.084;2024-01-15T05:53:24;98181.13;;;1.63;100.00
9189;BME280;34313;50.780;6.084;2024-01-15T05:55:49;98171.75;;;1.59;100.00
9189;BME280;34313;50.780;6.084;2024-01-15T05:58:15;98159.06;;;1.53;100.00
9189;BME280;34313;50.780;6.084;2024-01-15T06:00:41;98171.69;;;1.61;100.00
9189;BME280;34313;50.780;6.084;2024-01-15T06:03:07;98172.47;;;1.63;100.00
9189;BME280;34313;50.780;6.084;2024-01-15T06:05:32;98180.31;;;1.61;100.00
9189;BME280;34313;50.780;6.084;2024-01-15T06:07:57;98174.16;;;1.64;100.00
9189;BME280;34313;50.780;6.084;2024-01-15T06:10:22;98162.31;;;1.58;100.00
9189;BME280;34313;50.780;6.084;2024-01-15T06:12:48;98170.78;;;1.62;100.00
9189;BME280;34313;50.780;6.084;2024-01-15T06:15:13;98169.81;;;1.64;100.00
9189;BME280;34313;50.780;6.084;2024-01-15T06:17:38;98169.88;;;1.63;100.00
9189;BME280;34313;50.780;6.084;2024-01-15T06:20:04;98169.94;;;1.61;100.00
9189;BME280;34313;50.780;6.084;2024-01-15T06:22:30;98160.34;;;1.63;100.00
9189;BME280;34313;50.780;6.084;2024-01-15T06:24:55;98163.00;;;1.62;100.00
9189;BME280;34313;50.780;6.084;2024-01-15T06:27:21;98161.31;;;1.61;100.00
9189;BME280;34313;50.780;6.084;2024-01-15T06:29:46;98155.41;;;1.57;100.00
9189;BME280;34313;50.780;6.084;2024-01-15T06:32:14;98147.09;;;1.49;100.00
9189;BME280;34313;50.780;6.084;2024-01-15T06:34:40;98142.53;;;1.35;100.00
9189;BME280;34313;50.780;6.084;2024-01-15T06:37:05;98155.81;;;1.48;100.00
9189;BME280;34313;50.780;6.084;2024-01-15T06:39:31;98159.47;;;1.44;100.00
9189;BME280;34313;50.780;6.084;2024-01-15T06:41:56;98161.06;;;1.46;100.00
9189;BME280;34313;50.780;6.084;2024-01-15T06:44:21;98156.06;;;1.42;100.00
9189;BME280;34313;50.780;6.084;2024-01-15T06:46:47;98161.13;;;1.45;100.00
9189;BME280;34313;50.780;6.084;2024-01-15T06:49:12;98165.34;;;1.47;100.00
9189;BME280;34313;50.780;6.084;2024-01-15T06:51:38;98172.28;;;1.47;100.00
9189;BME280;34313;50.780;6.084;2024-01-15T06:54:03;98162.47;;;1.54;100.00
9189;BME280;34313;50.780;6.084;2024-01-15T06:56:29;98164.84;;;1.60;100.00
9189;BME280;34313;50.780;6.084;2024-01-15T06:58:54;98159.75;;;1.57;100.00
9189;BME280;34313;50.780;6.084;2024-01-15T07:01:19;98157.09;;;1.58;100.00
9189;BME280;34313;50.780;6.084;2024-01-15T07:03:45;98150.16;;;1.59;100.00
9189;BME280;34313;50.780;6.084;2024-01-15T07:06:11;98150.91;;;1.61;100.00
9189;BME280;34313;50.780;6.084;2024-01-15T07:08:36;98146.00;;;1.55;100.00
9189;BME280;34313;50.780;6.084;2024-01-15T07:11:05;98152.81;;;1.57;100.00
9189;BME280;34313;50.780;6.084;2024-01-15T07:13:31;98151.03;;;1.58;100.00
9189;BME280;34313;50.780;6.084;2024-01-15T07:15:56;98151.19;;;1.55;100.00
9189;BME280;34313;50.780;6.084;2024-01-15T07:18:24;98148.72;;;1.51;100.00
9189;BME280;34313;50.780;6.084;2024-01-15T07:20:50;98154.09;;;1.47;100.00
9189;BME280;34313;50.780;6.084;2024-01-15T07:23:15;98142.69;;;1.51;100.00
9189;BME280;34313;50.780;6.084;2024-01-15T07:25:42;98142.25;;;1.41;100.00
9189;BME280;34313;50.780;6.084;2024-01-15T07:28:08;98127.50;;;1.42;100.00
9189;BME280;34313;50.780;6.084;2024-01-15T07:30:33;98142.44;;;1.37;100.00
9189;BME280;34313;50.780;6.084;2024-01-15T07:32:59;98149.19;;;1.41;100.00
9189;BME280;34313;50.780;6.084;2024-01-15T07:35:24;98137.88;;;1.42;100.00
9189;BME280;34313;50.780;6.084;2024-01-15T07:37:49;98143.06;;;1.42;100.00
9189;BME280;34313;50.780;6.084;2024-01-15T07:40:15;98138.88;;;1.39;100.00
9189;BME280;34313;50.780;6.084;2024-01-15T07:42:40;98143.53;;;1.51;100.00
9189;BME280;34313;50.780;6.084;2024-01-15T07:45:07;98150.63;;;1.48;100.00
9189;BME280;34313;50.780;6.084;2024-01-15T07:47:33;98154.69;;;1.54;100.00
9189;BME280;34313;50.780;6.084;2024-01-15T07:49:58;98147.97;;;1.49;100.00
9189;BME280;34313;50.780;6.084;2024-01-15T07:52:23;98159.00;;;1.55;100.00
9189;BME280;34313;50.780;6.084;2024-01-15T07:54:49;98142.47;;;1.56;100.00
9189;BME280;34313;50.780;6.084;2024-01-15T07:57:14;98156.41;;;1.55;100.00
9189;BME280;34313;50.780;6.084;2024-01-15T07:59:39;98165.66;;;1.60;100.00
9189;BME280;34313;50.780;6.084;2024-01-15T08:02:05;98167.09;;;1.67;100.00
9189;BME280;34313;50.780;6.084;2024-01-15T08:04:30;98155.78;;;1.68;100.00
9189;BME280;34313;50.780;6.084;2024-01-15T08:06:56;98152.22;;;1.71;100.00
9189;BME280;34313;50.780;6.084;2024-01-15T08:09:22;98158.47;;;1.67;100.00
9189;BME280;34313;50.780;6.084;2024-01-15T08:11:47;98158.09;;;1.75;100.00
9189;BME280;34313;50.780;6.084;2024-01-15T08:14:14;98164.78;;;1.80;100.00
9189;BME280;34313;50.780;6.084;2024-01-15T08:16:39;98165.44;;;1.85;100.00
9189;BME280;34313;50.780;6.084;2024-01-15T08:19:05;98164.31;;;1.72;100.00
9189;BME280;34313;50.780;6.084;2024-01-15T08:21:31;98167.53;;;1.77;100.00
9189;BME280;34313;50.780;6.084;2024-01-15T08:24:01;98168.25;;;1.81;100.00
9189;BME280;34313;50.780;6.084;2024-01-15T08:26:27;98161.41;;;1.78;100.00
9189;BME280;34313;50.780;6.084;2024-01-15T08:28:53;98164.66;;;1.83;100.00
9189;BME280;34313;50.780;6.084;2024-01-15T08:31:18;98169.66;;;1.88;100.00
9189;BME280;34313;50.780;6.084;2024-01-15T08:33:43;98166.72;;;1.96;100.00
9189;BME280;34313;50.780;6.084;2024-01-15T08:36:11;98159.34;;;2.05;100.00
9189;BME280;34313;50.780;6.084;2024-01-15T08:38:37;98160.13;;;2.07;100.00
9189;BME280;34313;50.780;6.084;2024-01-15T08:41:02;98163.44;;;2.11;100.00
9189;BME280;34313;50.780;6.084;2024-01-15T08:43:28;98160.53;;;2.17;100.00
9189;BME280;34313;50.780;6.084;2024-01-15T08:45:53;98162.22;;;2.18;100.00
9189;BME280;34313;50.780;6.084;2024-01-15T08:48:18;98165.72;;;2.17;100.00
9189;BME280;34313;50.780;6.084;2024-01-15T08:50:44;98170.38;;;2.11;100.00
9189;BME280;34313;50.780;6.084;2024-01-15T08:53:13;98170.94;;;2.17;100.00
9189;BME280;34313;50.780;6.084;2024-01-15T08:55:38;98174.03;;;2.25;100.00
9189;BME280;34313;50.780;6.084;2024-01-15T08:58:04;98181.06;;;2.23;100.00
9189;BME280;34313;50.780;6.084;2024-01-15T09:00:29;98192.22;;;2.25;100.00
9189;BME280;34313;50.780;6.084;2024-01-15T09:02:56;98187.03;;;2.25;100.00
9189;BME280;34313;50.780;6.084;2024-01-15T09:05:21;98190.19;;;2.32;100.00
9189;BME280;34313;50.780;6.084;2024-01-15T09:07:47;98189.19;;;2.35;100.00
9189;BME280;34313;50.780;6.084;2024-01-15T09:10:13;98185.19;;;2.27;100.00
9189;BME280;34313;50.780;6.084;2024-01-15T09:12:38;98190.34;;;2.29;100.00
9189;BME280;34313;50.780;6.084;2024-01-15T09:15:04;98202.22;;;2.16;100.00
9189;BME280;34313;50.780;6.084;2024-01-15T09:17:31;98192.84;;;2.12;100.00
9189;BME280;34313;50.780;6.084;2024-01-15T09:19:56;98210.84;;;2.16;100.00
9189;BME280;34313;50.780;6.084;2024-01-15T09:22:21;98206.69;;;2.12;100.00
9189;BME280;34313;50.780;6.084;2024-01-15T09:24:47;98207.59;;;2.11;100.00
9189;BME280;34313;50.780;6.084;2024-01-15T09:27:12;98208.84;;;2.02;100.00
9189;BME280;34313;50.780;6.084;2024-01-15T09:29:38;98209.81;;;2.00;100.00
9189;BME280;34313;50.780;6.084;2024-01-15T09:32:05;98206.31;;;2.01;100.00
9189;BME280;34313;50.780;6.084;2024-01-15T09:34:30;98203.78;;;1.99;100.00
9189;BME280;34313;50.780;6.084;2024-01-15T09:36:56;98202.19;;;1.97;100.00
9189;BME280;34313;50.780;6.084;2024-01-15T09:39:21;98195.47;;;1.91;100.00
9189;BME280;34313;50.780;6.084;2024-01-15T09:41:49;98209.34;;;1.92;100.00
9189;BME280;34313;50.780;6.084;2024-01-15T09:44:15;98209.28;;;1.93;100.00
9189;BME280;34313;50.780;6.084;2024-01-15T09:46:41;98206.94;;;1.87;100.00
9189;BME280;34313;50.780;6.084;2024-01-15T09:49:08;98216.19;;;1.93;100.00
9189;BME280;34313;50.780;6.084;2024-01-15T09:51:35;98208.28;;;1.96;100.00
9189;BME280;34313;50.780;6.084;2024-01-15T09:54:02;98205.69;;;1.96;100.00
9189;BME280;34313;50.780;6.084;2024-01-15T09:56:27;98207.31;;;1.98;100.00
9189;BME280;34313;50.780;6.084;2024-01-15T09:58:53;98200.88;;;2.07;100.00
9189;BME280;34313;50.780;6.084;2024-01-15T10:01:20;98212.41;;;2.00;100.00
9189;BME280;34313;50.780;6.084;2024-01-15T10:03:46;98208.03;;;2.02;100.00
9189;BME280;34313;50.780;6.084;2024-01-15T10:06:15;98210.81;;;1.97;100.00
9189;BME280;34313;50.780;6.084;2024-01-15T10:08:43;98206.81;;;1.90;100.00
9189;BME280;34313;50.780;6.084;2024-01-15T10:11:12;98205.03;;;1.91;100.00
9189;BME280;34313;50.780;6.084;2024-01-15T10:13:38;98199.78;;;1.92;100.00
9189;BME280;34313;50.780;6.084;2024-01-15T10:16:04;98206.44;;;1.98;100.00
9189;BME280;34313;50.780;6.084;2024-01-15T10:18:29;98198.66;;;1.98;100.00
9189;BME280;34313;50.780;6.084;2024-01-15T10:20:56;98199.75;;;2.13;100.00
9189;BME280;34313;50.780;6.084;2024-01-15T10:23:23;98201.03;;;2.23;100.00
9189;BME280;34313;50.780;6.084;2024-01-15T10:25:48;98203.25;;;2.31;100.00
9189;BME280;34313;50.780;6.084;2024-01-15T10:28:14;98206.31;;;2.40;100.00
9189;BME280;34313;50.780;6.084;2024-01-15T10:30:39;98209.16;;;2.53;100.00
9189;BME280;34313;50.780;6.084;2024-01-15T10:33:05;98203.59;;;2.61;100.00
9189;BME280;34313;50.780;6.084;2024-01-15T10:35:34;98211.53;;;2.77;100.00
9189;BME280;34313;50.780;6.084;2024-01-15T10:38:00;98199.94;;;2.84;100.00
9189;BME280;34313;50.780;6.084;2024-01-15T10:40:26;98204.66;;;2.76;100.00
9189;BME280;34313;50.780;6.084;2024-01-15T10:42:51;98204.06;;;2.88;100.00
9189;BME280;34313;50.780;6.084;2024-01-15T10:45:17;98213.50;;;3.08;100.00
9189;BME280;34313;50.780;6.084;2024-01-15T10:47:43;98208.56;;;3.21;100.00
9189;BME280;34313;50.780;6.084;2024-01-15T10:50:09;98204.94;;;3.24;100.00
9189;BME280;34313;50.780;6.084;2024-01-15T10:52:36;98196.59;;;3.17;100.00
9189;BME280;34313;50.780;6.084;2024-01-15T10:55:03;98193.09;;;3.18;100.00
9189;BME280;34313;50.780;6.084;2024-01-15T10:57:29;98193.84;;;3.20;99.48
9189;BME280;34313;50.780;6.084;2024-01-15T10:59:54;98201.81;;;3.34;98.89
9189;BME280;34313;50.780;6.084;2024-01-15T11:02:20;98204.94;;;3.76;97.62
9189;BME280;34313;50.780;6.084;2024-01-15T11:04:45;98196.34;;;3.91;96.88
9189;BME280;34313;50.780;6.084;2024-01-15T11:07:11;98195.31;;;3.94;94.79
9189;BME280;34313;50.780;6.084;2024-01-15T11:09:38;98192.44;;;3.83;95.24
9189;BME280;34313;50.780;6.084;2024-01-15T11:12:09;98190.56;;;3.69;94.61
9189;BME280;34313;50.780;6.084;2024-01-15T11:14:42;98201.28;;;3.63;95.25
9189;BME280;34313;50.780;6.084;2024-01-15T11:17:11;98205.25;;;3.52;95.34
9189;BME280;34313;50.780;6.084;2024-01-15T11:19:42;98203.59;;;3.51;95.56
9189;BME280;34313;50.780;6.084;2024-01-15T11:22:08;98199.75;;;3.41;95.33
9189;BME280;34313;50.780;6.084;2024-01-15T11:24:38;98204.28;;;3.37;95.75
9189;BME280;34313;50.780;6.084;2024-01-15T11:27:04;98205.97;;;3.21;95.86
9189;BME280;34313;50.780;6.084;2024-01-15T11:29:34;98203.34;;;3.21;96.04
9189;BME280;34313;50.780;6.084;2024-01-15T11:32:04;98214.06;;;3.15;95.96
9189;BME280;34313;50.780;6.084;2024-01-15T11:37:15;98213.78;;;3.21;99.36
9189;BME280;34313;50.780;6.084;2024-01-15T11:39:42;98224.03;;;3.59;100.00
9189;BME280;34313;50.780;6.084;2024-01-15T11:42:09;98225.88;;;3.39;94.69
9189;BME280;34313;50.780;6.084;2024-01-15T11:44:34;98218.00;;;3.41;93.82
9189;BME280;34313;50.780;6.084;2024-01-15T11:47:05;98220.88;;;3.52;93.41
9189;BME280;34313;50.780;6.084;2024-01-15T11:50:00;98220.59;;;3.58;93.79
9189;BME280;34313;50.780;6.084;2024-01-15T11:52:38;98219.97;;;3.71;93.41
9189;BME280;34313;50.780;6.084;2024-01-15T11:55:34;98216.81;;;3.82;91.74
9189;BME280;34313;50.780;6.084;2024-01-15T11:58:02;98215.16;;;3.81;91.34
9189;BME280;34313;50.780;6.084;2024-01-15T12:00:32;98206.53;;;3.78;91.21
9189;BME280;34313;50.780;6.084;2024-01-15T12:02:58;98214.97;;;3.84;90.55
9189;BME280;34313;50.780;6.084;2024-01-15T12:05:23;98209.06;;;4.13;89.52
9189;BME280;34313;50.780;6.084;2024-01-15T12:07:49;98208.72;;;4.37;88.73
9189;BME280;34313;50.780;6.084;2024-01-15T12:10:21;98202.06;;;4.31;87.19
9189;BME280;34313;50.780;6.084;2024-01-15T12:12:50;98202.31;;;4.43;86.74
9189;BME280;34313;50.780;6.084;2024-01-15T12:15:18;98194.78;;;4.21;86.91
9189;BME280;34313;50.780;6.084;2024-01-15T12:17:45;98189.50;;;4.38;87.37
9189;BME280;34313;50.780;6.084;2024-01-15T12:20:10;98193.72;;;4.41;86.63
9189;BME280;34313;50.780;6.084;2024-01-15T12:22:37;98197.25;;;4.24;86.92
9189;BME280;34313;50.780;6.084;2024-01-15T12:25:03;98203.16;;;3.94;87.62
9189;BME280;34313;50.780;6.084;2024-01-15T12:27:28;98200.13;;;3.68;88.82
9189;BME280;34313;50.780;6.084;2024-01-15T12:29:54;98199.53;;;3.46;90.43
9189;BME280;34313;50.780;6.084;2024-01-15T12:32:19;98200.75;;;3.21;92.42
9189;BME280;34313;50.780;6.084;2024-01-15T12:34:46;98211.31;;;3.18;94.06
9189;BME280;34313;50.780;6.084;2024-01-15T12:37:11;98212.31;;;3.33;94.29
9189;BME280;34313;50.780;6.084;2024-01-15T12:39:37;98216.81;;;3.64;93.69
9189;BME280;34313;50.780;6.084;2024-01-15T12:42:03;98207.00;;;3.87;92.94
9189;BME280;34313;50.780;6.084;2024-01-15T12:44:29;98225.56;;;3.81;93.40
9189;BME280;34313;50.780;6.084;2024-01-15T12:46:54;98235.38;;;3.58;94.45
9189;BME280;34313;50.780;6.084;2024-01-15T12:49:21;98240.34;;;3.45;96.10
9189;BME280;34313;50.780;6.084;2024-01-15T12:51:53;98251.00;;;3.23;98.06
9189;BME280;34313;50.780;6.084;2024-01-15T12:54:19;98254.69;;;3.00;100.00
9189;BME280;34313;50.780;6.084;2024-01-15T12:56:44;98253.78;;;2.82;100.00
9189;BME280;34313;50.780;6.084;2024-01-15T12:59:09;98249.31;;;2.67;100.00
9189;BME280;34313;50.780;6.084;2024-01-15T13:01:35;98263.63;;;2.37;100.00
9189;BME280;34313;50.780;6.084;2024-01-15T13:04:01;98257.66;;;2.35;100.00
9189;BME280;34313;50.780;6.084;2024-01-15T13:06:26;98261.88;;;2.38;100.00
9189;BME280;34313;50.780;6.084;2024-01-15T13:08:51;98268.78;;;2.39;100.00